Dades meteomassalio
Diari Summary for Abril 28, 2017 Units:  English    Metric   Both
« Previous Day
Next Day »
Diari Semanal Mensual Anual Personalitzat
  Maxima: Minima: Mijana:
Temperatura: TemperatureC °F 4.0 °F 9.9 °F
Rosada: DewpointC °F -0.6 °F 1.3 °F
Humitat: Humidity % 34 % 57 %
Velocitat del vent: WindSpeedKMH mph 0.0 mph 9.5 mph
Racha vent: WindSpeedGustKMH mph - -
Vent:- - SW
Pressio: PressurehPa in 1015.1 in -
Pluja: 0.0 in    
Historical Graphs
 
 
Tabular Data for Abril 28, 2017
Time Temperature Dew Point Pressure Wind Wind Speed Wind Gust Humidity Rainfall Rate (Hourly) solar Conditions
TemperatureC °F DewpointC °F PressurehPa in Calm     Humidity % HourlyPrecipMM in SolarRadiationWatts/m^2 W/m2 Conditions
00:00 7.6 °F -0.6 °F 1018.8 in WNW 24.1 mph 24.1 mph 56 % 0.0 in 0.0 W/m2 CLR
00:05 7.4 °F -0.6 °F 1019.2 in WNW 20.4 mph 20.4 mph 57 % 0.0 in 0.0 W/m2 RA
00:10 7.4 °F -0.6 °F 1019.2 in WNW 20.9 mph 20.9 mph 57 % 0.0 in 0.0 W/m2 CLR
00:15 7.3 °F -0.4 °F 1019.2 in West 18.5 mph 18.5 mph 58 % 0.0 in 0.0 W/m2 CLR
00:20 7.2 °F -0.3 °F 1019.2 in WNW 22.2 mph 22.2 mph 59 % 0.0 in 0.0 W/m2 CLR
00:25 7.1 °F -0.4 °F 1019.2 in WNW 20.4 mph 20.4 mph 59 % 0.0 in 0.0 W/m2 CLR
00:30 7.1 °F -0.4 °F 1019.2 in WNW 14.8 mph 14.8 mph 59 % 0.0 in 0.0 W/m2 CLR
00:35 7.0 °F -0.5 °F 1019.2 in West 16.7 mph 16.7 mph 59 % 0.0 in 0.0 W/m2 CLR
00:40 7.0 °F -0.2 °F 1019.2 in WNW 18.5 mph 18.5 mph 60 % 0.0 in 0.0 W/m2 CLR
00:45 6.9 °F -0.1 °F 1019.2 in West 16.7 mph 16.7 mph 61 % 0.0 in 0.0 W/m2 CLR
00:50 6.8 °F -0.2 °F 1019.2 in West 18.5 mph 18.5 mph 61 % 0.0 in 0.0 W/m2 CLR
00:55 6.8 °F -0.2 °F 1019.2 in WSW 18.5 mph 18.5 mph 61 % 0.0 in 0.0 W/m2 CLR
01:00 6.7 °F -0.1 °F 1019.2 in West 18.5 mph 18.5 mph 62 % 0.0 in 0.0 W/m2 CLR
01:05 6.7 °F -0.1 °F 1019.2 in West 18.5 mph 18.5 mph 62 % 0.0 in 0.0 W/m2 CLR
01:10 6.6 °F -0.2 °F 1019.5 in WSW 18.5 mph 18.5 mph 62 % 0.0 in 0.0 W/m2 CLR
01:15 6.6 °F -0.2 °F 1019.5 in West 14.8 mph 14.8 mph 62 % 0.0 in 0.0 W/m2 CLR
01:20 6.5 °F -0.3 °F 1019.5 in West 9.3 mph 9.3 mph 62 % 0.0 in 0.0 W/m2 CLR
01:25 6.4 °F -0.2 °F 1019.5 in WSW 16.7 mph 16.7 mph 63 % 0.0 in 0.0 W/m2 CLR
01:30 6.3 °F -0.3 °F 1019.5 in West 16.1 mph 16.1 mph 63 % 0.0 in 0.0 W/m2 CLR
01:35 6.3 °F -0.3 °F 1019.5 in West 14.8 mph 14.8 mph 63 % 0.0 in 0.0 W/m2 CLR
01:40 6.3 °F -0.3 °F 1019.9 in West 16.7 mph 16.7 mph 63 % 0.0 in 0.0 W/m2 CLR
01:45 6.2 °F -0.3 °F 1019.9 in West 13.0 mph 13.0 mph 63 % 0.0 in 0.0 W/m2 CLR
01:50 6.2 °F -0.1 °F 1019.9 in WSW 18.5 mph 18.5 mph 64 % 0.0 in 0.0 W/m2 CLR
01:55 6.2 °F -0.3 °F 1019.9 in West 25.9 mph 25.9 mph 63 % 0.0 in 0.0 W/m2 CLR
02:00 6.2 °F -0.2 °F 1019.9 in WSW 20.4 mph 20.4 mph 64 % 0.0 in 0.0 W/m2 CLR
02:05 6.1 °F -0.2 °F 1019.5 in West 22.5 mph 22.5 mph 64 % 0.0 in 0.0 W/m2 CLR
02:10 6.1 °F -0.2 °F 1019.5 in West 18.5 mph 18.5 mph 64 % 0.0 in 0.0 W/m2 CLR
02:12 6.1 °F -0.2 °F 1019.5 in WSW 18.5 mph 18.5 mph 64 % 0.0 in 0.0 W/m2 CLR
02:17 6.1 °F -0.2 °F 1019.5 in West 22.2 mph 22.2 mph 64 % 0.0 in 0.0 W/m2 CLR
02:22 6.0 °F -0.3 °F 1019.5 in WSW 20.4 mph 20.4 mph 64 % 0.0 in 0.0 W/m2 CLR
02:27 6.0 °F -0.3 °F 1019.5 in WSW 25.9 mph 25.9 mph 64 % 0.0 in 0.0 W/m2 CLR
02:32 5.9 °F -0.2 °F 1019.5 in West 25.7 mph 25.7 mph 65 % 0.0 in 0.0 W/m2 CLR
02:37 5.9 °F -0.2 °F 1019.5 in West 22.2 mph 22.2 mph 65 % 0.0 in 0.0 W/m2 CLR
02:42 5.9 °F -0.2 °F 1019.5 in WNW 27.8 mph 27.8 mph 65 % 0.0 in 0.0 W/m2 CLR
02:47 5.9 °F -0.2 °F 1019.5 in West 22.2 mph 22.2 mph 65 % 0.0 in 0.0 W/m2 CLR
02:52 5.8 °F -0.2 °F 1019.5 in West 22.2 mph 22.2 mph 65 % 0.0 in 0.0 W/m2 CLR
02:57 5.7 °F -0.2 °F 1019.5 in West 20.9 mph 20.9 mph 66 % 0.0 in 0.0 W/m2 CLR
03:02 5.7 °F -0.2 °F 1019.5 in West 20.4 mph 20.4 mph 66 % 0.0 in 0.0 W/m2 CLR
03:07 5.6 °F -0.2 °F 1019.5 in West 18.5 mph 18.5 mph 66 % 0.0 in 0.0 W/m2 CLR
03:12 5.5 °F -0.3 °F 1019.5 in West 16.7 mph 16.7 mph 66 % 0.0 in 0.0 W/m2 CLR
03:17 5.5 °F -0.3 °F 1019.5 in WSW 18.5 mph 18.5 mph 66 % 0.0 in 0.0 W/m2 CLR
03:22 5.4 °F -0.3 °F 1019.5 in West 20.4 mph 20.4 mph 67 % 0.0 in 0.0 W/m2 CLR
03:27 5.4 °F -0.3 °F 1019.5 in West 18.5 mph 18.5 mph 67 % 0.0 in 0.0 W/m2 CLR
03:32 5.3 °F -0.3 °F 1019.5 in West 16.7 mph 16.7 mph 67 % 0.0 in 0.0 W/m2 CLR
03:37 5.2 °F -0.2 °F 1019.5 in WSW 13.0 mph 13.0 mph 68 % 0.0 in 0.0 W/m2 CLR
03:42 5.1 °F -0.3 °F 1019.5 in West 5.6 mph 5.6 mph 68 % 0.0 in 0.0 W/m2 CLR
03:47 4.9 °F -0.3 °F 1019.5 in West 7.4 mph 7.4 mph 69 % 0.0 in 0.0 W/m2 CLR
03:52 4.8 °F -0.2 °F 1019.5 in WSW 9.3 mph 9.3 mph 70 % 0.0 in 0.0 W/m2 CLR
03:57 4.7 °F -0.3 °F 1019.5 in WSW 11.1 mph 11.1 mph 70 % 0.0 in 0.0 W/m2 CLR
04:02 4.7 °F -0.2 °F 1019.9 in WSW 5.6 mph 5.6 mph 71 % 0.0 in 0.0 W/m2 CLR
04:07 4.6 °F -0.3 °F 1019.9 in WSW 9.3 mph 9.3 mph 71 % 0.0 in 0.0 W/m2 CLR
04:12 4.6 °F -0.2 °F 1019.9 in SW 7.4 mph 7.4 mph 71 % 0.0 in 0.0 W/m2 CLR
04:17 4.5 °F -0.1 °F 1019.9 in SW 5.6 mph 5.6 mph 72 % 0.0 in 0.0 W/m2 CLR
04:22 4.4 °F -0.2 °F 1019.9 in SW 5.6 mph 5.6 mph 72 % 0.0 in 0.0 W/m2 CLR
04:27 4.3 °F -0.1 °F 1019.9 in WSW 5.6 mph 6.0 mph 73 % 0.0 in 0.0 W/m2 CLR
04:32 4.2 °F -0.2 °F 1019.9 in WSW 7.4 mph 7.4 mph 73 % 0.0 in 0.0 W/m2 CLR
04:37 4.1 °F -0.3 °F 1019.9 in WSW 9.7 mph 9.7 mph 73 % 0.0 in 0.0 W/m2 CLR
04:43 4.1 °F -0.2 °F 1019.9 in West 11.1 mph 11.1 mph 74 % 0.0 in 0.0 W/m2 CLR
04:48 4.1 °F -0.1 °F 1019.9 in WSW 9.3 mph 9.3 mph 74 % 0.0 in 0.0 W/m2 CLR
04:53 4.1 °F -0.2 °F 1019.9 in WSW 14.8 mph 14.8 mph 74 % 0.0 in 0.0 W/m2 CLR
04:58 4.1 °F -0.2 °F 1019.9 in WSW 5.6 mph 5.6 mph 74 % 0.0 in 0.0 W/m2 CLR
05:03 4.0 °F -0.1 °F 1019.9 in WSW 11.1 mph 11.1 mph 75 % 0.0 in 0.0 W/m2 CLR
05:08 4.1 °F 0.1 °F 1019.9 in West 16.7 mph 16.7 mph 75 % 0.0 in 0.0 W/m2 CLR
05:13 4.3 °F 0.1 °F 1019.9 in WSW 16.7 mph 16.7 mph 74 % 0.0 in 0.0 W/m2 CLR
05:18 4.4 °F -0.1 °F 1019.9 in West 5.6 mph 6.1 mph 73 % 0.0 in 0.0 W/m2 CLR
05:23 4.4 °F -0.1 °F 1019.9 in West 9.3 mph 9.3 mph 73 % 0.0 in 0.0 W/m2 CLR
05:28 4.3 °F -0.1 °F 1019.9 in WSW 9.3 mph 9.3 mph 73 % 0.0 in 0.0 W/m2 CLR
05:33 4.2 °F 0.0 °F 1019.9 in WSW 11.1 mph 11.1 mph 74 % 0.0 in 0.0 W/m2 CLR
05:38 4.2 °F 0.0 °F 1019.9 in WSW 5.6 mph 5.6 mph 74 % 0.0 in 0.0 W/m2 CLR
05:43 4.2 °F 0.0 °F 1019.9 in WSW 6.4 mph 6.4 mph 74 % 0.0 in 0.0 W/m2 CLR
05:48 4.3 °F 0.1 °F 1019.9 in West 12.9 mph 12.9 mph 74 % 0.0 in 0.0 W/m2 CLR
05:53 4.3 °F -0.1 °F 1019.9 in WSW 11.3 mph 11.3 mph 73 % 0.0 in 0.0 W/m2 CLR
05:58 4.3 °F -0.1 °F 1019.9 in SW 13.0 mph 13.0 mph 73 % 0.0 in 0.0 W/m2 CLR
06:03 4.2 °F 0.0 °F 1020.2 in West 9.7 mph 11.4 mph 74 % 0.0 in 0.0 W/m2 CLR
06:08 4.3 °F 0.1 °F 1019.9 in WSW 11.3 mph 11.3 mph 74 % 0.0 in 0.0 W/m2 CLR
06:09 4.3 °F 0.1 °F 1019.9 in WSW 11.1 mph 11.1 mph 74 % 0.0 in 0.0 W/m2 CLR
06:14 4.2 °F 0.0 °F 1020.2 in WSW 13.0 mph 13.0 mph 74 % 0.0 in 0.0 W/m2 CLR
06:19 4.3 °F 0.1 °F 1020.2 in WSW 14.8 mph 14.8 mph 74 % 0.0 in 0.0 W/m2 CLR
06:24 4.3 °F 0.1 °F 1020.2 in WSW 16.7 mph 16.7 mph 74 % 0.0 in 0.0 W/m2 CLR
06:29 4.3 °F 0.1 °F 1020.2 in WSW 16.7 mph 16.7 mph 74 % 0.0 in 0.0 W/m2 CLR
06:34 4.2 °F -0.1 °F 1020.2 in WSW 9.3 mph 9.3 mph 74 % 0.0 in 0.0 W/m2 CLR
06:39 4.1 °F -0.1 °F 1020.2 in WSW 9.3 mph 9.3 mph 74 % 0.0 in 0.0 W/m2 CLR
06:44 4.2 °F 0.0 °F 1020.2 in WSW 13.0 mph 13.0 mph 74 % 0.0 in 0.0 W/m2 CLR
06:49 4.2 °F 0.0 °F 1020.2 in WSW 16.7 mph 16.7 mph 74 % 0.0 in 0.0 W/m2 CLR
06:54 4.2 °F 0.0 °F 1020.2 in WSW 18.5 mph 18.5 mph 74 % 0.0 in 0.0 W/m2 CLR
06:59 4.2 °F 0.0 °F 1020.2 in WSW 13.0 mph 13.0 mph 74 % 0.0 in 7.0 W/m2 CLR
07:04 4.2 °F 0.0 °F 1020.5 in WSW 11.1 mph 11.1 mph 74 % 0.0 in 11.0 W/m2 OVC
07:09 4.2 °F 0.0 °F 1020.5 in WSW 18.5 mph 18.5 mph 74 % 0.0 in 12.0 W/m2 BKN
07:14 4.3 °F 0.1 °F 1020.5 in SW 11.1 mph 11.1 mph 74 % 0.0 in 16.0 W/m2 BKN
07:19 4.3 °F 0.1 °F 1020.5 in WSW 11.1 mph 11.1 mph 74 % 0.0 in 21.0 W/m2 BKN
07:24 4.3 °F 0.1 °F 1020.5 in WSW 5.6 mph 5.6 mph 74 % 0.0 in 26.0 W/m2 BKN
07:29 4.3 °F 0.1 °F 1020.5 in WSW 5.6 mph 5.6 mph 74 % 0.0 in 30.0 W/m2 BKN
07:34 4.2 °F 0.2 °F 1020.5 in SW 8.0 mph 8.0 mph 75 % 0.0 in 33.0 W/m2 BKN
07:39 4.2 °F 0.1 °F 1020.5 in WSW 9.3 mph 9.3 mph 75 % 0.0 in 39.0 W/m2 BKN
07:44 4.1 °F 0.1 °F 1020.5 in WSW 7.4 mph 7.4 mph 75 % 0.0 in 51.0 W/m2 SCT
07:49 4.2 °F 0.1 °F 1020.5 in WSW 7.4 mph 7.4 mph 75 % 0.0 in 58.0 W/m2 SCT
07:54 4.3 °F 0.2 °F 1020.5 in WSW 8.0 mph 8.0 mph 75 % 0.0 in 65.0 W/m2 SCT
07:59 4.3 °F 0.3 °F 1020.5 in WSW 6.4 mph 6.4 mph 75 % 0.0 in 76.0 W/m2 FEW
08:04 4.4 °F 0.3 °F 1020.5 in SW 6.4 mph 6.4 mph 75 % 0.0 in 91.0 W/m2 FEW
08:09 4.4 °F 0.4 °F 1020.5 in SW 6.4 mph 6.4 mph 75 % 0.0 in 77.0 W/m2 FEW
08:14 4.5 °F 0.4 °F 1020.5 in WSW 5.6 mph 5.6 mph 75 % 0.0 in 88.0 W/m2 FEW
08:19 4.6 °F 0.5 °F 1020.5 in WSW 6.4 mph 6.4 mph 75 % 0.0 in 88.0 W/m2 CLR
08:24 4.7 °F 0.7 °F 1020.5 in WSW 3.7 mph 3.7 mph 75 % 0.0 in 192.0 W/m2 CLR
08:29 5.0 °F 0.6 °F 1020.5 in West 13.0 mph 13.0 mph 73 % 0.0 in 174.0 W/m2 CLR
08:34 5.2 °F 0.6 °F 1020.5 in WSW 11.3 mph 11.3 mph 72 % 0.0 in 134.0 W/m2 CLR
08:39 5.4 °F 0.6 °F 1020.5 in West 13.0 mph 13.0 mph 71 % 0.0 in 190.0 W/m2 CLR
08:44 5.6 °F 0.5 °F 1020.5 in WNW 7.4 mph 7.4 mph 70 % 0.0 in 251.0 W/m2 CLR
08:49 5.8 °F 0.7 °F 1020.5 in NW 12.9 mph 12.9 mph 70 % 0.0 in 278.0 W/m2 CLR
08:54 6.1 °F 0.8 °F 1020.5 in West 18.5 mph 18.5 mph 69 % 0.0 in 336.0 W/m2 CLR
08:59 6.2 °F 0.7 °F 1020.5 in WSW 16.7 mph 16.7 mph 68 % 0.0 in 304.0 W/m2 CLR
09:04 6.3 °F 0.8 °F 1020.2 in WSW 9.7 mph 9.7 mph 68 % 0.0 in 338.0 W/m2 CLR
09:09 6.5 °F 1.0 °F 1020.2 in SW 7.4 mph 7.4 mph 68 % 0.0 in 234.0 W/m2 CLR
09:14 6.6 °F 0.9 °F 1020.2 in WSW 5.6 mph 5.6 mph 67 % 0.0 in 176.0 W/m2 CLR
09:19 6.5 °F 0.8 °F 1020.2 in SW 7.4 mph 7.4 mph 67 % 0.0 in 162.0 W/m2 CLR
09:24 6.5 °F 0.8 °F 1020.2 in West 3.7 mph   67 % 0.0 in 236.0 W/m2 CLR
09:29 6.6 °F 0.9 °F 1020.2 in WSW 5.6 mph 5.6 mph 67 % 0.0 in 223.0 W/m2 CLR
09:35 6.6 °F 0.9 °F 1020.2 in WSW 11.1 mph 11.1 mph 67 % 0.0 in 415.0 W/m2 CLR
09:40 6.8 °F 1.1 °F 1020.2 in NW 11.3 mph 11.3 mph 67 % 0.0 in 417.0 W/m2 CLR
09:45 7.1 °F 1.2 °F 1020.2 in SW 13.0 mph 13.0 mph 66 % 0.0 in 380.0 W/m2 CLR
09:50 7.1 °F 0.9 °F 1020.2 in SW 5.6 mph 6.3 mph 65 % 0.0 in 429.0 W/m2 CLR
09:55 7.3 °F 1.2 °F 1020.2 in West 9.7 mph 9.7 mph 65 % 0.0 in 445.0 W/m2 CLR
10:00 7.3 °F 1.4 °F 1019.9 in West 14.8 mph 14.8 mph 66 % 0.0 in 392.0 W/m2 CLR
10:05 7.3 °F 1.1 °F 1020.2 in WNW 14.8 mph 14.8 mph 65 % 0.0 in 422.0 W/m2 CLR
10:10 7.3 °F 1.2 °F 1020.2 in WSW 14.8 mph 14.8 mph 65 % 0.0 in 329.0 W/m2 CLR
10:15 7.4 °F 1.2 °F 1020.2 in WSW 14.8 mph 14.8 mph 65 % 0.0 in 341.0 W/m2 CLR
10:20 7.5 °F 1.3 °F 1020.2 in West 6.4 mph 6.9 mph 65 % 0.0 in 341.0 W/m2 CLR
10:25 7.6 °F 1.2 °F 1020.2 in SW 18.5 mph 18.5 mph 64 % 0.0 in 381.0 W/m2 CLR
10:30 7.5 °F 1.3 °F 1020.2 in West 16.7 mph 16.7 mph 65 % 0.0 in 374.0 W/m2 CLR
10:35 7.7 °F 1.3 °F 1020.2 in WSW 14.8 mph 14.8 mph 64 % 0.0 in 403.0 W/m2 CLR
10:40 7.8 °F 1.4 °F 1019.9 in WNW 11.3 mph 12.2 mph 64 % 0.0 in 369.0 W/m2 CLR
10:45 7.9 °F 1.3 °F 1019.9 in WNW 16.7 mph 16.7 mph 63 % 0.0 in 410.0 W/m2 CLR
10:50 8.0 °F 1.2 °F 1019.9 in SSW 9.3 mph 9.3 mph 62 % 0.0 in 473.0 W/m2 CLR
10:55 8.2 °F 1.1 °F 1019.9 in WNW 16.7 mph 16.7 mph 61 % 0.0 in 526.0 W/m2 CLR
11:00 8.6 °F 1.4 °F 1019.9 in West 18.5 mph 18.5 mph 61 % 0.0 in 617.0 W/m2 CLR
11:05 8.7 °F 1.2 °F 1019.9 in West 18.5 mph 18.5 mph 59 % 0.0 in 773.0 W/m2 CLR
11:10 8.9 °F 1.6 °F 1019.9 in WSW 14.8 mph 14.8 mph 60 % 0.0 in 744.0 W/m2 CLR
11:15 9.2 °F 1.1 °F 1019.9 in West 13.0 mph 13.0 mph 57 % 0.0 in 756.0 W/m2 CLR
11:20 9.5 °F 1.9 °F 1019.9 in NW 14.8 mph 14.8 mph 59 % 0.0 in 784.0 W/m2 CLR
11:25 9.6 °F 1.0 °F 1019.9 in West 11.1 mph 11.1 mph 55 % 0.0 in 789.0 W/m2 CLR
11:30 9.9 °F 1.3 °F 1019.9 in West 18.5 mph 18.5 mph 55 % 0.0 in 800.0 W/m2 CLR
11:35 9.9 °F 1.3 °F 1019.9 in West 12.9 mph 12.9 mph 55 % 0.0 in 816.0 W/m2 CLR
11:40 10.0 °F 0.6 °F 1019.5 in West 14.8 mph 14.8 mph 52 % 0.0 in 831.0 W/m2 CLR
11:45 10.1 °F 0.7 °F 1019.5 in West 14.5 mph 14.5 mph 52 % 0.0 in 824.0 W/m2 CLR
11:55 10.7 °F 1.5 °F 1019.5 in West 5.6 mph 5.6 mph 53 % 0.0 in 846.0 W/m2 CLR
12:00 10.8 °F 0.8 °F 1019.5 in SSW 1.9 mph   50 % 0.0 in 860.0 W/m2 CLR
12:05 10.8 °F 0.8 °F 1019.5 in West 7.4 mph 7.4 mph 50 % 0.0 in 867.0 W/m2 CLR
12:10 10.9 °F 1.2 °F 1019.5 in WNW 5.6 mph 5.6 mph 51 % 0.0 in 867.0 W/m2 CLR
12:15 11.1 °F 1.3 °F 1019.5 in North 3.2 mph 3.2 mph 51 % 0.0 in 865.0 W/m2 CLR
12:20 11.4 °F 1.7 °F 1019.2 in West 12.9 mph 12.9 mph 51 % 0.0 in 865.0 W/m2 CLR
12:25 11.4 °F 1.6 °F 1019.2 in Calm     51 % 0.0 in 868.0 W/m2 CLR
12:30 11.4 °F 1.1 °F 1018.8 in NNW 3.7 mph 3.7 mph 49 % 0.0 in 875.0 W/m2 CLR
12:35 11.7 °F 2.2 °F 1018.8 in WNW 12.9 mph 12.9 mph 52 % 0.0 in 881.0 W/m2 CLR
12:40 11.8 °F 1.9 °F 1018.8 in Calm     51 % 0.0 in 884.0 W/m2 CLR
12:45 11.9 °F 1.3 °F 1018.8 in North 16.7 mph 16.7 mph 48 % 0.0 in 888.0 W/m2 CLR
12:50 12.2 °F 2.1 °F 1018.5 in West 1.9 mph 1.9 mph 50 % 0.0 in 900.0 W/m2 CLR
12:55 12.4 °F 1.7 °F 1018.5 in North 13.0 mph 13.0 mph 48 % 0.0 in 902.0 W/m2 CLR
13:00 12.3 °F 1.3 °F 1018.5 in NNW 11.3 mph 11.3 mph 47 % 0.0 in 905.0 W/m2 CLR
13:05 12.4 °F 1.4 °F 1018.5 in NNW 13.0 mph 13.0 mph 47 % 0.0 in 911.0 W/m2 CLR
13:10 12.4 °F 0.8 °F 1018.2 in Calm     45 % 0.0 in 914.0 W/m2 CLR
13:15 12.6 °F 1.3 °F 1018.2 in NNW 3.2 mph 3.2 mph 46 % 0.0 in 916.0 W/m2 CLR
13:20 12.7 °F 1.0 °F 1018.2 in ENE 3.7 mph 3.7 mph 45 % 0.0 in 916.0 W/m2 CLR
13:25 12.7 °F 1.4 °F 1018.2 in ENE 3.7 mph 3.7 mph 46 % 0.0 in 919.0 W/m2 CLR
13:30 12.8 °F 0.6 °F 1018.2 in NE 9.3 mph 9.3 mph 43 % 0.0 in 921.0 W/m2 CLR
13:35 12.8 °F 1.2 °F 1017.8 in Calm     45 % 0.0 in 923.0 W/m2 CLR
13:40 13.1 °F 1.1 °F 1017.8 in ENE 4.8 mph 4.8 mph 44 % 0.0 in 925.0 W/m2 CLR
13:45 13.6 °F 1.9 °F 1017.8 in NW 1.9 mph 1.9 mph 45 % 0.0 in 923.0 W/m2 CLR
13:55 14.3 °F 1.2 °F 1017.5 in NW 14.8 mph 14.8 mph 41 % 0.0 in 926.0 W/m2 CLR
14:00 14.2 °F 1.2 °F 1017.5 in West 11.3 mph 11.3 mph 41 % 0.0 in 928.0 W/m2 CLR
14:05 14.1 °F 2.0 °F 1017.5 in ENE 30.6 mph 30.6 mph 44 % 0.0 in 926.0 W/m2 CLR
14:10 14.4 °F 1.3 °F 1017.5 in Calm     41 % 0.0 in 926.0 W/m2 CLR
14:15 14.6 °F 1.4 °F 1017.2 in NW 1.9 mph   41 % 0.0 in 926.0 W/m2 CLR
14:20 14.7 °F 0.8 °F 1017.2 in NW 9.3 mph 9.3 mph 39 % 0.0 in 925.0 W/m2 CLR
14:25 14.5 °F 0.7 °F 1017.2 in West 7.4 mph 7.4 mph 39 % 0.0 in 925.0 W/m2 CLR
14:30 14.6 °F 0.4 °F 1017.2 in Calm     38 % 0.0 in 918.0 W/m2 CLR
14:35 14.6 °F 0.8 °F 1017.2 in ENE 1.9 mph   39 % 0.0 in 926.0 W/m2 CLR
14:40 14.8 °F 1.0 °F 1017.2 in Calm     39 % 0.0 in 916.0 W/m2 CLR
14:45 15.1 °F 0.8 °F 1016.8 in WSW 5.6 mph 5.6 mph 38 % 0.0 in 918.0 W/m2 CLR
14:50 15.0 °F 0.8 °F 1016.8 in Calm     38 % 0.0 in 909.0 W/m2 CLR
14:55 15.2 °F 1.3 °F 1016.8 in ENE 27.4 mph 27.4 mph 39 % 0.0 in 902.0 W/m2 CLR
15:00 15.4 °F 1.2 °F 1016.8 in Calm     38 % 0.0 in 900.0 W/m2 CLR
15:05 15.6 °F 0.9 °F 1016.8 in NNE 18.5 mph 18.5 mph 37 % 0.0 in 905.0 W/m2 CLR
15:10 15.4 °F 1.1 °F 1016.8 in Calm     38 % 0.0 in 884.0 W/m2 CLR
15:15 15.6 °F 1.3 °F 1016.8 in Calm   0.6 mph 38 % 0.0 in 877.0 W/m2 CLR
15:25 15.1 °F 0.9 °F 1016.5 in ESE 1.9 mph 1.9 mph 38 % 0.0 in 784.0 W/m2 CLR
15:30 15.1 °F 1.2 °F 1016.5 in Calm     39 % 0.0 in 744.0 W/m2 CLR
15:35 15.3 °F 1.1 °F 1016.5 in Calm     38 % 0.0 in 831.0 W/m2 CLR
15:40 15.7 °F 1.4 °F 1016.5 in ENE 9.3 mph 9.3 mph 38 % 0.0 in 844.0 W/m2 CLR
15:46 15.8 °F 1.8 °F 1016.5 in ENE 3.7 mph 3.7 mph 39 % 0.0 in 826.0 W/m2 CLR
15:51 15.8 °F 1.2 °F 1016.1 in ESE 5.6 mph   37 % 0.0 in 812.0 W/m2 CLR
15:56 15.8 °F 1.1 °F 1016.1 in North 4.8 mph 4.8 mph 37 % 0.0 in 833.0 W/m2 CLR
16:01 15.8 °F 1.2 °F 1016.1 in North 18.5 mph 18.5 mph 37 % 0.0 in 780.0 W/m2 CLR
16:06 15.6 °F 0.5 °F 1015.8 in NE 1.9 mph   36 % 0.0 in 795.0 W/m2 CLR
16:11 15.8 °F 1.8 °F 1016.1 in NW 13.0 mph 13.0 mph 39 % 0.0 in 795.0 W/m2 CLR
16:16 16.1 °F 1.7 °F 1015.8 in NNE 5.6 mph 5.6 mph 38 % 0.0 in 791.0 W/m2 CLR
16:21 16.5 °F 1.7 °F 1015.8 in NNE 5.6 mph 5.6 mph 37 % 0.0 in 775.0 W/m2 CLR
16:26 16.6 °F 1.4 °F 1015.8 in Calm     36 % 0.0 in 749.0 W/m2 CLR
16:31 16.8 °F 1.7 °F 1015.8 in NE 16.1 mph 16.1 mph 36 % 0.0 in 712.0 W/m2 CLR
16:36 16.7 °F 1.6 °F 1015.8 in NE 13.0 mph 13.0 mph 36 % 0.0 in 673.0 W/m2 CLR
16:41 16.6 °F 2.2 °F 1015.8 in Calm   0.5 mph 38 % 0.0 in 675.0 W/m2 CLR
16:46 16.7 °F 1.5 °F 1015.5 in ENE 12.9 mph 13.0 mph 36 % 0.0 in 694.0 W/m2 CLR
16:51 16.6 °F 1.8 °F 1015.5 in Calm     37 % 0.0 in 668.0 W/m2 CLR
16:56 16.6 °F 1.0 °F 1015.8 in ESE 9.3 mph 9.3 mph 35 % 0.0 in 628.0 W/m2 CLR
17:01 16.3 °F 1.2 °F 1015.5 in Calm     36 % 0.0 in 670.0 W/m2 CLR
17:06 16.1 °F 0.6 °F 1015.5 in Calm   0.2 mph 35 % 0.0 in 617.0 W/m2 CLR
17:11 16.3 °F 1.6 °F 1015.5 in NNW 5.6 mph   37 % 0.0 in 671.0 W/m2 CLR
17:21 16.4 °F 0.9 °F 1015.5 in Calm     35 % 0.0 in 640.0 W/m2 CLR
17:26 16.6 °F 1.4 °F 1015.5 in Calm     36 % 0.0 in 577.0 W/m2 CLR
17:27 16.6 °F 1.4 °F 1015.5 in Calm     36 % 0.0 in 577.0 W/m2 CLR
17:32 16.8 °F 1.2 °F 1015.5 in NNW 5.6 mph 5.6 mph 35 % 0.0 in 606.0 W/m2 CLR
17:37 16.8 °F 1.2 °F 1015.5 in NNW 1.9 mph   35 % 0.0 in 564.0 W/m2 CLR
17:42 16.7 °F 1.2 °F 1015.5 in NNE 9.7 mph 9.7 mph 35 % 0.0 in 559.0 W/m2 CLR
17:47 16.7 °F 1.2 °F 1015.5 in NNE 5.6 mph 5.6 mph 35 % 0.0 in 538.0 W/m2 CLR
17:52 16.8 °F 1.2 °F 1015.5 in NNE 5.6 mph 5.6 mph 35 % 0.0 in 524.0 W/m2 CLR
17:57 16.7 °F 1.2 °F 1015.5 in NNW 3.7 mph 3.7 mph 35 % 0.0 in 476.0 W/m2 CLR
18:02 16.9 °F 1.3 °F 1015.5 in Calm     35 % 0.0 in 487.0 W/m2 CLR
18:07 16.9 °F 0.9 °F 1015.5 in Calm     34 % 0.0 in 476.0 W/m2 CLR
18:12 16.5 °F 0.9 °F 1015.5 in East 5.6 mph 5.6 mph 35 % 0.0 in 461.0 W/m2 CLR
18:17 16.4 °F 0.9 °F 1015.5 in ENE 9.3 mph   35 % 0.0 in 434.0 W/m2 CLR
18:22 16.4 °F 0.9 °F 1015.1 in NNE 9.3 mph 9.3 mph 35 % 0.0 in 429.0 W/m2 CLR
18:27 16.6 °F 1.0 °F 1015.1 in North 3.7 mph 3.7 mph 35 % 0.0 in 373.0 W/m2 CLR
18:32 16.8 °F 1.2 °F 1015.1 in North 5.6 mph 5.6 mph 35 % 0.0 in 387.0 W/m2 CLR
18:37 16.7 °F 1.2 °F 1015.1 in NNW 3.7 mph 3.7 mph 35 % 0.0 in 378.0 W/m2 CLR
18:42 16.9 °F 1.3 °F 1015.1 in ENE 4.8 mph 4.8 mph 35 % 0.0 in 350.0 W/m2 CLR
18:47 16.9 °F 0.9 °F 1015.1 in ENE 3.7 mph 3.7 mph 34 % 0.0 in 352.0 W/m2 CLR
18:52 16.9 °F 0.9 °F 1015.1 in North 1.9 mph   34 % 0.0 in 329.0 W/m2 CLR
18:57 16.9 °F 1.4 °F 1015.1 in Calm     35 % 0.0 in 318.0 W/m2 CLR
19:02 17.0 °F 1.0 °F 1015.1 in NE 5.6 mph 5.6 mph 34 % 0.0 in 278.0 W/m2 CLR
19:07 16.8 °F 0.9 °F 1015.1 in East 5.6 mph 5.6 mph 34 % 0.0 in 271.0 W/m2 CLR
19:12 16.6 °F 1.1 °F 1015.1 in ENE 3.7 mph 3.7 mph 35 % 0.0 in 260.0 W/m2 CLR
19:17 16.6 °F 1.4 °F 1015.1 in NNE 5.6 mph 5.6 mph 36 % 0.0 in 225.0 W/m2 CLR
19:22 16.6 °F 1.4 °F 1015.1 in NNE 5.6 mph 5.6 mph 36 % 0.0 in 223.0 W/m2 CLR
19:27 16.7 °F 1.1 °F 1015.1 in NNE 5.6 mph 5.6 mph 35 % 0.0 in 204.0 W/m2 CLR
19:32 16.7 °F 1.1 °F 1015.1 in Calm     35 % 0.0 in 185.0 W/m2 CLR
19:37 16.7 °F 1.1 °F 1015.1 in North 5.6 mph 5.6 mph 35 % 0.0 in 172.0 W/m2 CLR
19:42 16.7 °F 1.1 °F 1015.1 in NE 5.6 mph 5.6 mph 35 % 0.0 in 156.0 W/m2 CLR
19:47 16.5 °F 0.9 °F 1015.1 in NNE 11.1 mph 11.1 mph 35 % 0.0 in 134.0 W/m2 CLR
19:52 16.3 °F 0.8 °F 1015.1 in NNE 5.6 mph 5.6 mph 35 % 0.0 in 114.0 W/m2 CLR
19:57 16.2 °F 1.1 °F 1015.5 in NNE 3.7 mph 3.7 mph 36 % 0.0 in 95.0 W/m2 CLR
20:02 16.1 °F 0.9 °F 1015.5 in ENE 3.7 mph 3.7 mph 36 % 0.0 in 83.0 W/m2 FEW
20:07 15.6 °F 2.3 °F 1015.5 in ESE 9.3 mph 9.3 mph 41 % 0.0 in 67.0 W/m2 FEW
20:12 15.2 °F 2.7 °F 1015.5 in ENE 9.3 mph 9.3 mph 43 % 0.0 in 33.0 W/m2 BKN
20:17 14.9 °F 2.8 °F 1015.5 in ESE 9.3 mph 9.3 mph 44 % 0.0 in 30.0 W/m2 BKN
20:22 14.8 °F 2.9 °F 1015.5 in SE 9.3 mph 9.3 mph 45 % 0.0 in 26.0 W/m2 BKN
20:27 14.6 °F 3.1 °F 1015.5 in SE 5.6 mph 5.6 mph 46 % 0.0 in 23.0 W/m2 BKN
20:32 14.5 °F 3.0 °F 1015.5 in SE 5.6 mph 5.6 mph 46 % 0.0 in 19.0 W/m2 BKN
20:37 14.4 °F 2.9 °F 1015.5 in SSE 5.6 mph 5.6 mph 46 % 0.0 in 16.0 W/m2 BKN
20:42 14.2 °F 3.3 °F 1015.8 in SSE 11.1 mph 11.1 mph 48 % 0.0 in 12.0 W/m2 BKN
20:47 13.9 °F 3.4 °F 1015.8 in SSE 7.4 mph 7.4 mph 49 % 0.0 in 7.0 W/m2 BKN
20:52 13.8 °F 3.5 °F 1015.8 in SSE 8.0 mph 8.0 mph 50 % 0.0 in 0.0 W/m2 OVC
20:53 13.7 °F 3.5 °F 1015.8 in SSE 9.3 mph 9.3 mph 50 % 0.0 in 0.0 W/m2 OVC
20:58 13.6 °F 3.6 °F 1015.8 in SE 5.6 mph 5.6 mph 51 % 0.0 in 0.0 W/m2 OVC
21:04 13.3 °F 3.7 °F 1016.1 in SE 5.6 mph 5.6 mph 52 % 0.0 in 0.0 W/m2 CLR
21:09 13.2 °F 3.8 °F 1016.1 in SSE 7.4 mph 7.4 mph 53 % 0.0 in 0.0 W/m2 CLR
21:14 13.0 °F 3.9 °F 1016.1 in SSE 5.6 mph 5.6 mph 54 % 0.0 in 0.0 W/m2 CLR
21:19 12.9 °F 4.1 °F 1016.1 in SSE 9.3 mph 9.3 mph 55 % 0.0 in 0.0 W/m2 CLR
21:24 12.8 °F 4.2 °F 1016.1 in SE 9.3 mph 9.3 mph 56 % 0.0 in 0.0 W/m2 CLR
21:29 12.7 °F 4.1 °F 1016.5 in SSE 7.4 mph 7.4 mph 56 % 0.0 in 0.0 W/m2 CLR
21:34 12.6 °F 4.3 °F 1016.5 in South 5.6 mph 5.6 mph 57 % 0.0 in 0.0 W/m2 CLR
21:39 12.4 °F 4.7 °F 1016.5 in SSE 11.1 mph 11.1 mph 59 % 0.0 in 0.0 W/m2 CLR
21:44 12.3 °F 5.0 °F 1016.5 in SSE 9.3 mph 9.3 mph 61 % 0.0 in 0.0 W/m2 CLR
21:49 12.3 °F 5.2 °F 1016.5 in SSE 11.1 mph 11.1 mph 62 % 0.0 in 0.0 W/m2 CLR
21:54 12.2 °F 5.2 °F 1016.5 in South 9.3 mph 9.3 mph 62 % 0.0 in 0.0 W/m2 CLR
21:59 12.1 °F 5.2 °F 1016.5 in South 13.0 mph 13.0 mph 63 % 0.0 in 0.0 W/m2 CLR
22:04 12.0 °F 5.2 °F 1016.5 in South 14.8 mph 14.8 mph 63 % 0.0 in 0.0 W/m2 CLR
22:09 11.9 °F 5.3 °F 1016.5 in South 11.3 mph 11.3 mph 64 % 0.0 in 0.0 W/m2 CLR
22:14 11.8 °F 5.2 °F 1016.5 in South 5.6 mph 6.8 mph 64 % 0.0 in 0.0 W/m2 CLR
22:19 11.7 °F 5.1 °F 1016.5 in South 7.4 mph 7.4 mph 64 % 0.0 in 0.0 W/m2 CLR
22:24 11.6 °F 5.2 °F 1016.5 in South 5.6 mph 5.6 mph 65 % 0.0 in 0.0 W/m2 CLR
22:29 11.5 °F 5.4 °F 1016.5 in South 5.6 mph 5.6 mph 66 % 0.0 in 0.0 W/m2 CLR
22:34 11.4 °F 5.3 °F 1016.8 in South 5.6 mph 5.6 mph 66 % 0.0 in 0.0 W/m2 CLR
22:39 11.3 °F 5.2 °F 1016.8 in SSW 5.6 mph 5.6 mph 66 % 0.0 in 0.0 W/m2 CLR
22:44 11.2 °F 5.3 °F 1016.8 in South 3.7 mph 3.7 mph 67 % 0.0 in 0.0 W/m2 CLR
22:49 11.2 °F 5.3 °F 1016.8 in Calm     67 % 0.0 in 0.0 W/m2 CLR
22:54 11.1 °F 5.2 °F 1016.8 in South 1.9 mph 1.9 mph 67 % 0.0 in 0.0 W/m2 CLR
22:59 11.0 °F 5.3 °F 1016.8 in Calm     68 % 0.0 in 0.0 W/m2 CLR
23:04 10.9 °F 5.2 °F 1017.2 in Calm     68 % 0.0 in 0.0 W/m2 CLR
23:09 10.8 °F 5.1 °F 1017.2 in Calm     68 % 0.0 in 0.0 W/m2 CLR
23:14 10.7 °F 5.0 °F 1017.2 in Calm     68 % 0.0 in 0.0 W/m2 CLR
23:19 10.4 °F 4.9 °F 1017.2 in Calm     69 % 0.0 in 0.0 W/m2 CLR
23:24 10.2 °F 4.9 °F 1017.2 in Calm     70 % 0.0 in 0.0 W/m2 CLR
23:29 10.0 °F 5.0 °F 1017.2 in Calm     71 % 0.0 in 0.0 W/m2 CLR
23:34 9.8 °F 5.0 °F 1017.2 in Calm     72 % 0.0 in 0.0 W/m2 CLR
23:39 9.7 °F 4.8 °F 1017.2 in Calm     72 % 0.0 in 0.0 W/m2 CLR
23:44 9.6 °F 4.9 °F 1017.2 in Calm     73 % 0.0 in 0.0 W/m2 CLR
23:49 9.4 °F 4.8 °F 1017.2 in Calm     73 % 0.0 in 0.0 W/m2 CLR
23:54 9.4 °F 5.0 °F 1017.2 in Calm     74 % 0.0 in 0.0 W/m2 CLR
23:59 9.3 °F 4.9 °F 1017.2 in Calm     74 % 0.0 in 0.0 W/m2 CLR
Lo Temps de Massalio
Compliments of Weather Underground - 1.25 mb